createdAt,value
2022-10-17T00:00:53.576Z,12.76
2022-10-17T00:03:21.068Z,12.66
2022-10-17T00:05:49.541Z,12.60
2022-10-17T00:08:19.468Z,12.59
2022-10-17T00:10:47.515Z,12.51
2022-10-17T00:13:15.054Z,12.54
2022-10-17T00:15:44.333Z,12.46
2022-10-17T00:18:11.810Z,12.51
2022-10-17T00:20:39.281Z,12.49
2022-10-17T00:23:06.789Z,12.51
2022-10-17T00:25:36.421Z,12.76
2022-10-17T00:28:04.011Z,12.72
2022-10-17T00:30:32.743Z,12.85
2022-10-17T00:33:00.202Z,12.86
2022-10-17T00:35:27.754Z,12.71
2022-10-17T00:37:55.244Z,12.61
2022-10-17T00:40:22.932Z,12.78
2022-10-17T00:42:53.096Z,12.61
2022-10-17T00:45:23.711Z,12.63
2022-10-17T00:47:54.986Z,12.57
2022-10-17T00:50:23.028Z,12.37
2022-10-17T00:52:50.531Z,12.46
2022-10-17T00:55:21.576Z,12.36
2022-10-17T00:57:49.375Z,12.32
2022-10-17T01:00:19.292Z,12.33
2022-10-17T01:02:47.142Z,12.42
2022-10-17T01:05:15.783Z,12.39
2022-10-17T01:07:44.269Z,12.35
2022-10-17T01:10:12.232Z,12.29
2022-10-17T01:12:49.603Z,12.22
2022-10-17T01:15:26.627Z,12.26
2022-10-17T01:18:03.274Z,12.21
2022-10-17T01:20:53.526Z,12.06
2022-10-17T01:23:31.834Z,12.04
2022-10-17T01:26:06.316Z,12.10
2022-10-17T01:29:01.282Z,12.26
2022-10-17T01:31:33.630Z,12.15
2022-10-17T01:34:04.495Z,12.28
2022-10-17T01:36:38.031Z,12.16
2022-10-17T01:39:13.557Z,12.09
2022-10-17T01:41:43.686Z,12.13
2022-10-17T01:44:14.469Z,12.11
2022-10-17T01:46:44.868Z,12.06
2022-10-17T01:49:14.427Z,12.05
2022-10-17T01:51:44.283Z,12.20
2022-10-17T01:54:14.493Z,12.13
2022-10-17T01:56:43.132Z,12.12
2022-10-17T01:59:13.712Z,11.97
2022-10-17T02:01:44.478Z,12.27
2022-10-17T02:04:12.502Z,11.84
2022-10-17T02:06:40.268Z,11.96
2022-10-17T02:09:19.005Z,11.99
2022-10-17T02:11:53.737Z,11.95
2022-10-17T02:14:26.833Z,12.05
2022-10-17T02:17:03.960Z,11.95
2022-10-17T02:19:37.098Z,12.11
2022-10-17T02:22:16.987Z,11.96
2022-10-17T02:24:49.054Z,11.97
2022-10-17T02:27:18.809Z,11.95
2022-10-17T02:29:49.961Z,12.09
2022-10-17T02:32:23.005Z,11.94
2022-10-17T02:34:52.129Z,12.08
2022-10-17T02:37:24.449Z,11.94
2022-10-17T02:39:52.309Z,11.86
2022-10-17T02:42:22.829Z,11.78
2022-10-17T02:44:50.447Z,11.69
2022-10-17T02:47:24.328Z,11.77
2022-10-17T02:49:52.877Z,11.82
2022-10-17T02:52:26.581Z,11.88
2022-10-17T02:54:57.880Z,11.87
2022-10-17T02:57:29.553Z,11.95
2022-10-17T02:59:58.685Z,11.99
2022-10-17T03:02:27.886Z,11.76
2022-10-17T03:04:56.340Z,11.62
2022-10-17T03:07:23.887Z,11.60
2022-10-17T03:09:51.384Z,11.43
2022-10-17T03:12:18.865Z,11.36
2022-10-17T03:14:46.357Z,11.55
2022-10-17T03:17:13.849Z,11.50
2022-10-17T03:19:42.691Z,11.35
2022-10-17T03:22:10.175Z,11.51
2022-10-17T03:24:37.647Z,11.39
2022-10-17T03:27:05.318Z,11.28
2022-10-17T03:29:32.865Z,11.37
2022-10-17T03:32:00.417Z,11.46
2022-10-17T03:34:28.518Z,11.32
2022-10-17T03:36:57.353Z,11.33
2022-10-17T03:39:25.106Z,11.28
2022-10-17T03:41:52.563Z,11.47
2022-10-17T03:44:20.065Z,11.32
2022-10-17T03:46:47.514Z,11.47
2022-10-17T03:49:15.005Z,11.36
2022-10-17T03:51:42.485Z,11.34
2022-10-17T03:54:11.326Z,11.19
2022-10-17T03:56:38.809Z,11.27
2022-10-17T03:59:07.748Z,11.30
2022-10-17T04:01:35.321Z,11.30
2022-10-17T04:04:02.867Z,11.47
2022-10-17T04:06:30.345Z,11.57
2022-10-17T04:08:57.814Z,11.49
2022-10-17T04:11:26.648Z,11.40
2022-10-17T04:13:55.414Z,11.50
2022-10-17T04:16:23.530Z,11.29
2022-10-17T04:18:54.161Z,11.42
2022-10-17T04:21:22.168Z,11.27
2022-10-17T04:23:49.623Z,11.49
2022-10-17T04:26:17.133Z,11.52
2022-10-17T04:28:45.928Z,11.43
2022-10-17T04:31:15.087Z,11.23
2022-10-17T04:33:43.109Z,11.49
2022-10-17T04:36:13.270Z,11.26
2022-10-17T04:38:41.096Z,11.25
2022-10-17T04:41:11.578Z,11.13
2022-10-17T04:43:40.141Z,11.31
2022-10-17T04:46:10.205Z,11.32
2022-10-17T04:48:38.061Z,11.19
2022-10-17T04:51:07.319Z,11.07
2022-10-17T04:53:35.824Z,11.12
2022-10-17T04:56:08.954Z,11.26
2022-10-17T04:58:36.864Z,11.16
2022-10-17T05:01:10.457Z,11.10
2022-10-17T05:03:38.168Z,11.06
2022-10-17T05:06:07.066Z,11.14
2022-10-17T05:08:34.837Z,11.08
2022-10-17T05:11:02.438Z,10.95
2022-10-17T05:13:29.923Z,10.96
2022-10-17T05:16:00.125Z,11.04
2022-10-17T05:18:29.202Z,11.01
2022-10-17T05:20:57.025Z,11.01
2022-10-17T05:23:24.473Z,11.09
2022-10-17T05:25:55.788Z,11.21
2022-10-17T05:28:23.368Z,11.11
2022-10-17T05:30:50.967Z,11.09
2022-10-17T05:33:18.587Z,11.08
2022-10-17T05:35:47.428Z,10.98
2022-10-17T05:38:14.860Z,10.78
2022-10-17T05:40:42.325Z,10.73
2022-10-17T05:43:09.809Z,10.65
2022-10-17T05:45:37.341Z,10.60
2022-10-17T05:48:05.058Z,10.58
2022-10-17T05:50:32.963Z,10.72
2022-10-17T05:53:01.899Z,10.93
2022-10-17T05:55:29.419Z,10.94
2022-10-17T05:57:58.429Z,10.93
2022-10-17T06:00:25.925Z,10.89
2022-10-17T06:02:53.500Z,10.94
2022-10-17T06:05:21.962Z,10.85
2022-10-17T06:07:52.359Z,10.80
2022-10-17T06:10:21.229Z,10.84
2022-10-17T06:12:48.817Z,10.84
2022-10-17T06:15:16.372Z,10.95
2022-10-17T06:17:43.828Z,11.02
2022-10-17T06:20:11.660Z,11.08
2022-10-17T06:22:39.156Z,10.99
2022-10-17T06:25:07.363Z,11.08
2022-10-17T06:27:36.190Z,11.21
2022-10-17T06:30:04.002Z,11.16
2022-10-17T06:32:32.279Z,11.03
2022-10-17T06:34:59.940Z,11.27
2022-10-17T06:37:28.403Z,11.29
2022-10-17T06:39:57.523Z,11.17
2022-10-17T06:42:25.067Z,11.22
2022-10-17T06:44:53.887Z,11.26
2022-10-17T06:47:21.413Z,11.34
2022-10-17T06:49:48.866Z,11.31
2022-10-17T06:52:17.082Z,11.28
2022-10-17T06:54:44.674Z,11.27
2022-10-17T06:57:13.178Z,11.26
2022-10-17T06:59:40.697Z,11.27
2022-10-17T07:02:10.025Z,11.29
2022-10-17T07:04:37.585Z,11.30
2022-10-17T07:07:05.315Z,11.43
2022-10-17T07:09:33.447Z,11.44
2022-10-17T07:12:00.974Z,11.50
2022-10-17T07:14:31.941Z,11.72
2022-10-17T07:16:59.616Z,11.79
2022-10-17T07:19:28.531Z,11.83
2022-10-17T07:21:56.070Z,11.81
2022-10-17T07:24:23.566Z,11.82
2022-10-17T07:26:51.048Z,11.87
2022-10-17T07:29:18.513Z,11.97
2022-10-17T07:31:51.260Z,12.02
2022-10-17T07:34:18.839Z,12.08
2022-10-17T07:36:47.740Z,12.15
2022-10-17T07:39:15.168Z,12.20
2022-10-17T07:41:42.633Z,12.24
2022-10-17T07:44:10.116Z,12.38
2022-10-17T07:46:37.580Z,12.46
2022-10-17T07:49:05.136Z,12.52
2022-10-17T07:51:32.650Z,12.77
2022-10-17T07:54:01.539Z,12.99
2022-10-17T07:56:29.597Z,13.31
2022-10-17T07:58:59.194Z,13.43
2022-10-17T08:01:29.065Z,13.56
2022-10-17T08:03:56.512Z,13.62
2022-10-17T08:06:23.960Z,13.73
2022-10-17T08:08:51.441Z,13.80
2022-10-17T08:11:21.195Z,13.90
2022-10-17T08:13:48.702Z,14.04
2022-10-17T08:16:16.160Z,14.15
2022-10-17T08:18:44.241Z,14.27
2022-10-17T08:21:13.173Z,14.47
2022-10-17T08:23:41.143Z,14.55
2022-10-17T08:26:10.645Z,14.58
2022-10-17T08:28:41.182Z,14.64
2022-10-17T08:31:10.414Z,14.70
2022-10-17T08:33:38.505Z,14.81
2022-10-17T08:36:07.121Z,14.87
2022-10-17T08:38:36.904Z,14.96
2022-10-17T08:41:08.373Z,15.08
2022-10-17T08:43:48.285Z,15.15
2022-10-17T08:48:49.254Z,15.30
2022-10-17T08:51:19.403Z,15.35
2022-10-17T08:53:50.022Z,15.42
2022-10-17T08:56:30.306Z,15.51
2022-10-17T08:59:12.432Z,15.56
2022-10-17T09:01:43.998Z,15.57
2022-10-17T09:04:41.852Z,15.57
2022-10-17T09:07:14.884Z,15.63
2022-10-17T09:09:48.135Z,15.68
2022-10-17T09:12:18.676Z,15.73
2022-10-17T09:15:05.608Z,15.78
2022-10-17T09:17:39.373Z,15.83
2022-10-17T09:20:11.782Z,15.80
2022-10-17T09:22:43.530Z,15.85
2022-10-17T09:25:13.781Z,15.87
2022-10-17T09:27:43.280Z,15.88
2022-10-17T09:30:43.738Z,16.03
2022-10-17T09:33:23.352Z,16.07
2022-10-17T09:36:03.245Z,16.17
2022-10-17T09:38:40.334Z,16.20
2022-10-17T09:41:42.776Z,16.19
2022-10-17T09:44:15.145Z,16.25
2022-10-17T09:46:49.462Z,16.30
2022-10-17T09:49:19.668Z,16.28
2022-10-17T09:51:47.308Z,16.38
2022-10-17T09:54:21.029Z,16.41
2022-10-17T09:56:59.345Z,16.49
2022-10-17T09:59:34.056Z,16.58
2022-10-17T10:02:20.292Z,16.59
2022-10-17T10:05:04.142Z,16.67
2022-10-17T10:07:34.536Z,16.80
2022-10-17T10:10:02.927Z,16.92
2022-10-17T10:12:33.526Z,16.98
2022-10-17T10:15:01.166Z,17.02
2022-10-17T10:17:35.697Z,17.09
2022-10-17T10:20:04.688Z,17.23
2022-10-17T10:22:32.500Z,17.40
2022-10-17T10:25:15.377Z,17.43
2022-10-17T10:27:43.765Z,17.52
2022-10-17T10:30:18.654Z,17.64
2022-10-17T10:32:49.106Z,17.61
2022-10-17T10:35:22.011Z,17.72
2022-10-17T10:37:51.434Z,17.74
2022-10-17T10:40:21.445Z,17.85
2022-10-17T10:42:51.295Z,17.89
2022-10-17T10:45:47.570Z,17.96
2022-10-17T10:48:19.753Z,18.07
2022-10-17T10:50:48.235Z,18.16
2022-10-17T10:53:31.790Z,18.22
2022-10-17T10:56:05.379Z,18.30
2022-10-17T10:58:43.017Z,18.39
2022-10-17T11:01:15.741Z,18.48
2022-10-17T11:03:54.641Z,18.55
2022-10-17T11:06:30.404Z,18.64
2022-10-17T11:09:10.896Z,18.71
2022-10-17T11:11:41.371Z,18.86
2022-10-17T11:14:14.385Z,18.94
2022-10-17T11:16:47.192Z,19.08
2022-10-17T11:19:19.621Z,19.09
2022-10-17T11:21:49.017Z,19.17
2022-10-17T11:24:22.820Z,19.33
2022-10-17T11:26:56.622Z,19.52
2022-10-17T11:29:27.794Z,19.61
2022-10-17T11:31:56.693Z,19.61
2022-10-17T11:34:27.504Z,19.61
2022-10-17T11:36:58.960Z,19.67
2022-10-17T11:39:31.468Z,19.71
2022-10-17T11:42:03.515Z,19.87
2022-10-17T11:44:35.442Z,19.91
2022-10-17T11:47:06.925Z,19.96
2022-10-17T11:49:41.105Z,20.08
2022-10-17T11:52:31.899Z,20.15
2022-10-17T11:55:12.320Z,20.15
2022-10-17T11:57:48.937Z,20.17
2022-10-17T12:00:25.924Z,20.26
2022-10-17T12:03:04.647Z,20.31
2022-10-17T12:05:40.174Z,20.35
2022-10-17T12:08:14.496Z,20.33
2022-10-17T12:10:49.889Z,20.33
2022-10-17T12:14:05.798Z,20.35
2022-10-17T12:16:48.665Z,20.38
2022-10-17T12:19:25.125Z,20.40
2022-10-17T12:21:58.847Z,20.57
2022-10-17T12:24:35.135Z,20.57
2022-10-17T12:27:23.607Z,20.61
2022-10-17T12:29:51.423Z,20.72
2022-10-17T12:32:18.878Z,20.79
2022-10-17T12:34:53.080Z,20.85
2022-10-17T12:37:57.380Z,20.95
2022-10-17T12:40:51.299Z,21.01
2022-10-17T12:43:46.697Z,21.03
2022-10-17T12:46:14.550Z,21.05
2022-10-17T12:49:22.146Z,21.04
2022-10-17T12:52:18.533Z,21.13
2022-10-17T12:55:00.304Z,21.14
2022-10-17T12:57:40.584Z,21.21
2022-10-17T13:00:17.355Z,21.24
2022-10-17T13:02:45.458Z,21.29
2022-10-17T13:05:17.851Z,21.35
2022-10-17T13:07:48.892Z,21.32
2022-10-17T13:10:21.636Z,21.33
2022-10-17T13:12:51.206Z,21.34
2022-10-17T13:15:20.317Z,21.34
2022-10-17T13:17:57.150Z,21.43
2022-10-17T13:20:31.273Z,21.56
2022-10-17T13:23:00.014Z,21.68
2022-10-17T13:25:28.948Z,21.72
2022-10-17T13:28:11.671Z,21.74
2022-10-17T13:30:39.546Z,21.89
2022-10-17T13:33:20.080Z,21.99
2022-10-17T13:36:00.081Z,22.04
2022-10-17T13:38:30.245Z,22.15
2022-10-17T13:41:06.087Z,22.13
2022-10-17T13:43:46.569Z,22.07
2022-10-17T13:46:36.821Z,22.11
2022-10-17T13:49:12.352Z,22.07
2022-10-17T13:51:44.140Z,21.97
2022-10-17T13:54:19.537Z,21.99
2022-10-17T13:56:47.019Z,22.00
2022-10-17T13:59:24.340Z,22.00
2022-10-17T14:01:52.291Z,22.03
2022-10-17T14:04:20.632Z,22.11
2022-10-17T14:06:49.616Z,22.13
2022-10-17T14:09:23.292Z,22.14
2022-10-17T14:11:59.356Z,22.17
2022-10-17T14:14:32.189Z,22.13
2022-10-17T14:17:02.090Z,22.06
2022-10-17T14:19:32.439Z,22.04
2022-10-17T14:22:17.204Z,21.95
2022-10-17T14:24:45.093Z,22.00
2022-10-17T14:27:30.620Z,22.00
2022-10-17T14:30:02.532Z,21.97
2022-10-17T14:35:24.343Z,21.88
2022-10-17T14:37:54.935Z,21.97
2022-10-17T14:40:24.145Z,22.03
2022-10-17T14:42:52.172Z,21.89
2022-10-17T14:45:27.183Z,21.89
2022-10-17T14:47:57.244Z,21.85
2022-10-17T14:50:26.393Z,21.83
2022-10-17T14:53:01.761Z,21.82
2022-10-17T14:55:31.676Z,21.77
2022-10-17T14:57:59.520Z,21.74
2022-10-17T15:00:28.942Z,21.66
2022-10-17T15:02:57.292Z,21.74
2022-10-17T15:05:25.013Z,21.76
2022-10-17T15:07:53.072Z,21.65
2022-10-17T15:10:26.613Z,21.64
2022-10-17T15:12:59.151Z,21.62
2022-10-17T15:15:33.767Z,21.66
2022-10-17T15:18:01.356Z,21.59
2022-10-17T15:20:30.368Z,21.56
2022-10-17T15:22:59.448Z,21.52
2022-10-17T15:25:28.257Z,21.49
2022-10-17T15:27:56.193Z,21.51
2022-10-17T15:30:25.485Z,21.57
2022-10-17T15:32:54.867Z,21.52
2022-10-17T15:35:23.132Z,21.54
2022-10-17T15:37:51.001Z,21.53
2022-10-17T15:40:21.254Z,21.50
2022-10-17T15:42:48.936Z,21.39
2022-10-17T15:45:17.947Z,21.39
2022-10-17T15:47:51.478Z,21.35
2022-10-17T15:50:21.694Z,21.23
2022-10-17T15:52:50.843Z,21.11
2022-10-17T15:55:19.135Z,21.02
2022-10-17T15:57:47.431Z,20.94
2022-10-17T16:00:17.567Z,20.81
2022-10-17T16:02:45.392Z,20.71
2022-10-17T16:05:16.143Z,20.64
2022-10-17T16:07:46.721Z,20.52
2022-10-17T16:10:14.691Z,20.46
2022-10-17T16:12:42.715Z,20.27
2022-10-17T16:15:14.868Z,20.19
2022-10-17T16:17:43.764Z,20.07
2022-10-17T16:20:12.491Z,19.95
2022-10-17T16:22:42.195Z,19.91
2022-10-17T16:25:20.360Z,19.82
2022-10-17T16:27:48.697Z,19.73
2022-10-17T16:30:16.579Z,19.62
2022-10-17T16:32:44.447Z,19.50
2022-10-17T16:35:17.596Z,19.40
2022-10-17T16:37:45.323Z,19.33
2022-10-17T16:40:14.578Z,19.27
2022-10-17T16:42:42.336Z,19.17
2022-10-17T16:45:11.270Z,19.10
2022-10-17T16:47:38.843Z,19.05
2022-10-17T16:50:07.281Z,18.98
2022-10-17T16:52:35.162Z,18.90
2022-10-17T16:55:02.866Z,18.80
2022-10-17T16:57:31.907Z,18.75
2022-10-17T16:59:59.648Z,18.66
2022-10-17T17:02:27.318Z,18.61
2022-10-17T17:04:54.997Z,18.55
2022-10-17T17:07:24.225Z,18.49
2022-10-17T17:09:53.656Z,18.48
2022-10-17T17:12:21.237Z,18.39
2022-10-17T17:14:50.312Z,18.38
2022-10-17T17:17:30.325Z,18.32
2022-10-17T17:20:07.567Z,18.27
2022-10-17T17:22:35.216Z,18.25
2022-10-17T17:25:02.801Z,18.24
2022-10-17T17:27:30.773Z,18.26
2022-10-17T17:29:59.923Z,18.20
2022-10-17T17:32:27.481Z,18.29
2022-10-17T17:34:55.211Z,18.29
2022-10-17T17:37:22.909Z,18.30
2022-10-17T17:39:50.564Z,18.34
2022-10-17T17:42:18.200Z,18.33
2022-10-17T17:44:45.873Z,18.33
2022-10-17T17:47:14.927Z,18.34
2022-10-17T17:49:42.474Z,18.32
2022-10-17T17:52:10.272Z,18.30
2022-10-17T17:54:40.790Z,18.30
2022-10-17T17:57:08.947Z,18.33
2022-10-17T17:59:40.372Z,18.33
2022-10-17T18:02:08.893Z,18.32
2022-10-17T18:04:37.988Z,18.31
2022-10-17T18:07:05.545Z,18.44
2022-10-17T18:09:33.169Z,18.41
2022-10-17T18:12:00.705Z,18.35
2022-10-17T18:14:28.459Z,18.29
2022-10-17T18:16:55.985Z,18.26
2022-10-17T18:19:23.694Z,18.22
2022-10-17T18:21:52.723Z,18.15
2022-10-17T18:24:20.562Z,18.10
2022-10-17T18:26:48.143Z,18.04
2022-10-17T18:29:15.971Z,18.02
2022-10-17T18:31:43.863Z,17.99
2022-10-17T18:34:11.585Z,17.98
2022-10-17T18:36:39.434Z,17.97
2022-10-17T18:39:08.356Z,17.97
2022-10-17T18:41:36.042Z,17.98
2022-10-17T18:44:03.893Z,18.01
2022-10-17T18:46:35.585Z,18.05
2022-10-17T18:49:03.966Z,18.02
2022-10-17T18:51:31.606Z,18.07
2022-10-17T18:53:59.563Z,18.04
2022-10-17T18:56:28.701Z,18.05
2022-10-17T18:58:56.532Z,18.02
2022-10-17T19:01:26.951Z,17.99
2022-10-17T19:03:56.972Z,17.99
2022-10-17T19:06:26.374Z,18.01
2022-10-17T19:08:54.480Z,18.00
2022-10-17T19:11:23.945Z,17.99
2022-10-17T19:13:53.622Z,17.95
2022-10-17T19:16:22.818Z,17.88
2022-10-17T19:18:51.299Z,17.98
2022-10-17T19:21:21.858Z,18.08
2022-10-17T19:23:51.728Z,17.93
2022-10-17T19:26:20.379Z,17.93
2022-10-17T19:28:48.700Z,17.96
2022-10-17T19:31:18.434Z,17.62
2022-10-17T19:33:46.618Z,17.66
2022-10-17T19:36:14.794Z,17.70
2022-10-17T19:38:42.391Z,17.64
2022-10-17T19:41:11.035Z,17.64
2022-10-17T19:43:40.531Z,17.64
2022-10-17T19:46:09.804Z,17.63
2022-10-17T19:48:39.127Z,17.51
2022-10-17T19:51:07.891Z,17.48
2022-10-17T19:53:36.104Z,17.48
2022-10-17T19:56:04.133Z,17.46
2022-10-17T19:58:32.115Z,17.41
2022-10-17T20:01:01.683Z,17.43
2022-10-17T20:03:29.808Z,17.46
2022-10-17T20:05:58.950Z,17.46
2022-10-17T20:11:03.929Z,17.38
2022-10-17T20:13:31.646Z,17.36
2022-10-17T20:15:59.856Z,17.36
2022-10-17T20:18:28.192Z,17.36
2022-10-17T20:20:56.315Z,17.30
2022-10-17T20:23:25.323Z,17.30
2022-10-17T20:26:13.190Z,17.26
2022-10-17T20:28:47.301Z,17.27
2022-10-17T20:31:15.943Z,17.28
2022-10-17T20:33:43.489Z,17.31
2022-10-17T20:36:14.046Z,17.27
2022-10-17T20:38:42.977Z,17.26
2022-10-17T20:41:11.446Z,17.27
2022-10-17T20:43:40.571Z,17.34
2022-10-17T20:46:22.787Z,17.32
2022-10-17T20:48:58.285Z,17.30
2022-10-17T20:51:39.030Z,17.25
2022-10-17T20:54:07.985Z,17.25
2022-10-17T20:56:36.400Z,17.26
2022-10-17T20:59:05.829Z,17.27
2022-10-17T21:01:35.058Z,17.30
2022-10-17T21:04:26.860Z,17.31
2022-10-17T21:06:52.127Z,17.32
2022-10-17T21:09:21.949Z,17.33
2022-10-17T21:11:51.391Z,17.30
2022-10-17T21:14:19.428Z,17.30
2022-10-17T21:16:46.999Z,17.33
2022-10-17T21:19:15.836Z,17.34
2022-10-17T21:21:45.183Z,17.38
2022-10-17T21:24:14.598Z,17.39
2022-10-17T21:26:44.699Z,17.39
2022-10-17T21:29:13.292Z,17.48
2022-10-17T21:31:42.131Z,17.51
2022-10-17T21:34:11.637Z,17.43
2022-10-17T21:36:39.632Z,17.39
2022-10-17T21:39:09.460Z,17.34
2022-10-17T21:41:37.168Z,17.33
2022-10-17T21:44:08.264Z,17.31
2022-10-17T21:46:35.762Z,17.27
2022-10-17T21:49:03.631Z,17.31
2022-10-17T21:51:31.240Z,17.30
2022-10-17T21:53:59.073Z,17.29
2022-10-17T21:56:32.412Z,17.28
2022-10-17T21:59:00.489Z,17.26
2022-10-17T22:01:31.410Z,17.25
2022-10-17T22:04:04.083Z,17.25
2022-10-17T22:06:42.017Z,17.22
2022-10-17T22:09:13.774Z,17.24
2022-10-17T22:11:41.845Z,17.21
2022-10-17T22:14:12.673Z,17.22
2022-10-17T22:16:46.269Z,17.21
2022-10-17T22:19:15.396Z,17.20
2022-10-17T22:21:42.861Z,17.17
2022-10-17T22:24:12.905Z,17.17
2022-10-17T22:26:40.713Z,17.17
2022-10-17T22:29:09.161Z,17.22
2022-10-17T22:31:37.243Z,17.22
2022-10-17T22:34:06.870Z,17.18
2022-10-17T22:36:34.713Z,17.18
2022-10-17T22:39:02.499Z,17.12
2022-10-17T22:41:30.062Z,17.13
2022-10-17T22:43:57.682Z,17.07
2022-10-17T22:46:25.465Z,17.08
2022-10-17T22:48:52.926Z,17.09
2022-10-17T22:51:21.700Z,17.07
2022-10-17T22:53:49.217Z,17.06
2022-10-17T22:56:18.946Z,17.09
2022-10-17T22:58:46.731Z,17.10
2022-10-17T23:01:16.787Z,17.07
2022-10-17T23:03:44.765Z,17.06
2022-10-17T23:06:12.380Z,17.08
2022-10-17T23:08:41.620Z,17.06
2022-10-17T23:11:09.397Z,17.05
2022-10-17T23:13:37.324Z,16.96
2022-10-17T23:16:05.227Z,16.97
2022-10-17T23:18:32.730Z,16.99
2022-10-17T23:21:00.197Z,16.99
2022-10-17T23:23:27.667Z,16.98
2022-10-17T23:25:56.471Z,16.96
2022-10-17T23:28:23.960Z,16.90
2022-10-17T23:30:51.465Z,16.88
2022-10-17T23:33:19.041Z,16.91
2022-10-17T23:35:46.509Z,16.92
2022-10-17T23:38:13.967Z,16.94
2022-10-17T23:40:41.976Z,16.91
2022-10-17T23:43:10.828Z,16.94
2022-10-17T23:45:38.264Z,16.90
2022-10-17T23:48:06.249Z,16.90
2022-10-17T23:50:33.705Z,16.89
2022-10-17T23:53:01.152Z,16.89
2022-10-17T23:55:28.874Z,16.88
2022-10-17T23:57:56.353Z,16.93
